createdAt,value
2022-09-28T00:00:48.885Z,79.76
2022-09-28T00:05:51.060Z,79.62
2022-09-28T00:10:56.984Z,79.32
2022-09-28T00:16:07.810Z,79.70
2022-09-28T00:21:18.461Z,79.65
2022-09-28T00:26:20.570Z,79.46
2022-09-28T00:31:25.329Z,79.46
2022-09-28T00:36:32.280Z,79.53
2022-09-28T00:41:35.876Z,79.49
2022-09-28T00:46:38.046Z,79.52
2022-09-28T00:51:41.341Z,79.37
2022-09-28T00:56:46.784Z,79.40
2022-09-28T01:01:49.569Z,79.35
2022-09-28T01:06:52.166Z,79.20
2022-09-28T01:11:55.362Z,79.08
2022-09-28T01:17:05.346Z,79.35
2022-09-28T01:22:34.999Z,79.26
2022-09-28T01:27:45.232Z,79.22
2022-09-28T01:32:55.418Z,79.20
2022-09-28T01:38:03.422Z,79.49
2022-09-28T01:43:17.323Z,79.28
2022-09-28T01:48:42.857Z,79.55
2022-09-28T01:53:53.960Z,79.56
2022-09-28T01:59:12.940Z,79.34
2022-09-28T02:04:19.153Z,79.56
2022-09-28T02:09:34.307Z,79.64
2022-09-28T02:14:38.581Z,79.21
2022-09-28T02:19:41.545Z,79.51
2022-09-28T02:25:08.087Z,80.11
2022-09-28T02:30:10.904Z,79.77
2022-09-28T02:35:15.008Z,80.02
2022-09-28T02:40:19.566Z,80.04
2022-09-28T02:45:59.516Z,80.50
2022-09-28T02:51:40.199Z,80.32
2022-09-28T02:57:00.150Z,79.85
2022-09-28T03:02:26.180Z,80.42
2022-09-28T03:07:33.704Z,79.90
2022-09-28T03:12:37.358Z,80.11
2022-09-28T03:17:39.919Z,80.31
2022-09-28T03:22:42.385Z,80.30
2022-09-28T03:27:44.825Z,80.28
2022-09-28T03:32:48.812Z,80.58
2022-09-28T03:37:56.428Z,81.09
2022-09-28T03:43:00.950Z,81.07
2022-09-28T03:48:03.351Z,80.58
2022-09-28T03:53:06.224Z,80.67
2022-09-28T03:58:08.384Z,80.76
2022-09-28T04:03:10.649Z,80.96
2022-09-28T04:08:12.890Z,80.94
2022-09-28T04:13:15.418Z,80.99
2022-09-28T04:18:17.735Z,81.20
2022-09-28T04:23:40.879Z,81.27
2022-09-28T04:29:06.573Z,81.06
2022-09-28T04:34:09.634Z,81.07
2022-09-28T04:39:16.274Z,81.55
2022-09-28T04:44:21.263Z,81.52
2022-09-28T04:49:25.856Z,81.24
2022-09-28T04:54:29.662Z,81.02
2022-09-28T04:59:32.204Z,81.28
2022-09-28T05:04:38.080Z,81.71
2022-09-28T05:09:45.969Z,81.63
2022-09-28T05:14:50.019Z,81.64
2022-09-28T05:19:52.276Z,82.02
2022-09-28T05:24:55.197Z,81.80
2022-09-28T05:29:59.521Z,82.05
2022-09-28T05:35:24.733Z,81.88
2022-09-28T05:40:26.883Z,81.85
2022-09-28T05:45:29.815Z,82.18
2022-09-28T05:50:32.230Z,82.20
2022-09-28T05:55:35.609Z,82.19
2022-09-28T06:00:37.743Z,82.47
2022-09-28T06:05:40.580Z,82.43
2022-09-28T06:10:42.915Z,82.44
2022-09-28T06:15:47.019Z,82.75
2022-09-28T06:20:49.904Z,82.46
2022-09-28T06:25:54.527Z,82.59
2022-09-28T06:30:56.903Z,82.74
2022-09-28T06:35:59.956Z,82.77
2022-09-28T06:41:02.270Z,82.74
2022-09-28T06:46:04.752Z,83.04
2022-09-28T06:51:25.417Z,82.95
2022-09-28T06:56:33.230Z,83.09
2022-09-28T07:01:35.699Z,83.07
2022-09-28T07:06:56.437Z,82.77
2022-09-28T07:12:17.035Z,82.93
2022-09-28T07:17:32.475Z,82.91
2022-09-28T07:22:43.135Z,83.06
2022-09-28T07:27:50.720Z,83.09
2022-09-28T07:33:14.731Z,83.37
2022-09-28T07:38:29.539Z,83.03
2022-09-28T07:43:32.841Z,83.11
2022-09-28T07:48:36.991Z,83.25
2022-09-28T07:53:50.581Z,83.34
2022-09-28T07:59:17.892Z,83.17
2022-09-28T08:04:38.513Z,83.11
2022-09-28T08:09:40.854Z,83.14
2022-09-28T08:15:01.351Z,83.19
2022-09-28T08:20:40.557Z,83.30
2022-09-28T08:25:50.722Z,83.19
2022-09-28T08:30:54.551Z,82.97
2022-09-28T08:36:06.236Z,82.86
2022-09-28T08:41:34.175Z,82.85
2022-09-28T08:46:55.856Z,82.67
2022-09-28T08:52:14.650Z,82.66
2022-09-28T08:57:34.679Z,82.83
2022-09-28T09:02:39.849Z,82.74
2022-09-28T09:07:59.354Z,82.71
2022-09-28T09:13:17.696Z,82.90
2022-09-28T09:18:34.285Z,82.36
2022-09-28T09:23:54.999Z,82.06
2022-09-28T09:29:09.837Z,82.28
2022-09-28T09:34:35.609Z,82.18
2022-09-28T09:40:15.352Z,82.15
2022-09-28T09:46:12.868Z,81.89
2022-09-28T09:52:05.285Z,81.49
2022-09-28T09:57:15.374Z,81.37
2022-09-28T10:02:34.787Z,81.02
2022-09-28T10:07:55.406Z,80.98
2022-09-28T10:12:58.245Z,80.89
2022-09-28T10:18:06.957Z,80.89
2022-09-28T10:23:31.501Z,80.67
2022-09-28T10:28:40.327Z,80.41
2022-09-28T10:33:42.964Z,80.13
2022-09-28T10:38:48.159Z,80.24
2022-09-28T10:44:11.139Z,80.20
2022-09-28T10:49:43.202Z,80.28
2022-09-28T10:54:53.768Z,80.30
2022-09-28T10:59:57.610Z,79.86
2022-09-28T11:05:22.316Z,80.32
2022-09-28T11:10:31.224Z,80.23
2022-09-28T11:15:42.887Z,80.13
2022-09-28T11:20:47.259Z,80.20
2022-09-28T11:26:00.734Z,80.29
2022-09-28T11:31:09.418Z,80.19
2022-09-28T11:36:43.305Z,80.13
2022-09-28T11:41:58.705Z,80.21
2022-09-28T11:47:25.292Z,80.23
2022-09-28T11:52:39.888Z,80.46
2022-09-28T11:57:45.041Z,80.11
2022-09-28T12:03:09.642Z,80.22
2022-09-28T12:08:27.842Z,79.91
2022-09-28T12:13:42.417Z,80.04
2022-09-28T12:19:04.499Z,80.31
2022-09-28T12:24:27.608Z,79.91
2022-09-28T12:29:39.340Z,80.05
2022-09-28T12:34:43.105Z,79.82
2022-09-28T12:39:59.316Z,79.93
2022-09-28T12:46:10.935Z,80.11
2022-09-28T12:51:41.677Z,79.95
2022-09-28T12:57:07.938Z,79.85
2022-09-28T13:02:50.321Z,79.62
2022-09-28T13:08:05.648Z,79.61
2022-09-28T13:13:23.181Z,79.44
2022-09-28T13:18:34.991Z,79.48
2022-09-28T13:23:43.729Z,79.45
2022-09-28T13:28:50.465Z,79.43
2022-09-28T13:33:53.769Z,79.38
2022-09-28T13:38:59.583Z,79.28
2022-09-28T13:44:11.057Z,79.46
2022-09-28T13:49:21.413Z,79.51
2022-09-28T13:54:51.165Z,79.59
2022-09-28T14:00:12.067Z,79.17
2022-09-28T14:05:28.914Z,79.44
2022-09-28T14:11:12.290Z,79.64
2022-09-28T14:16:22.470Z,79.51
2022-09-28T14:22:06.537Z,79.70
2022-09-28T14:27:17.523Z,79.61
2022-09-28T14:32:25.089Z,79.43
2022-09-28T14:37:53.954Z,79.82
2022-09-28T14:43:24.418Z,79.79
2022-09-28T14:48:53.675Z,79.80
2022-09-28T14:54:07.944Z,79.75
2022-09-28T14:59:30.481Z,79.98
2022-09-28T15:04:39.378Z,79.73
2022-09-28T15:09:41.892Z,79.99
2022-09-28T15:15:03.172Z,80.27
2022-09-28T15:20:29.085Z,80.07
2022-09-28T15:25:41.383Z,80.11
2022-09-28T15:30:46.319Z,79.88
2022-09-28T15:36:04.085Z,80.20
2022-09-28T15:41:07.150Z,79.89
2022-09-28T15:46:21.217Z,80.16
2022-09-28T15:51:24.425Z,79.94
2022-09-28T15:56:27.821Z,79.88
2022-09-28T16:01:40.050Z,79.98
2022-09-28T16:06:42.261Z,80.06
2022-09-28T16:11:44.494Z,79.97
2022-09-28T16:16:51.143Z,80.20
2022-09-28T16:21:58.949Z,80.36
2022-09-28T16:27:09.857Z,80.16
2022-09-28T16:32:27.110Z,80.79
2022-09-28T16:37:32.885Z,80.51
2022-09-28T16:42:35.786Z,80.72
2022-09-28T16:47:39.648Z,80.89
2022-09-28T16:53:00.376Z,80.73
2022-09-28T16:58:04.941Z,80.85
2022-09-28T17:03:15.510Z,81.23
2022-09-28T17:08:19.587Z,81.01
2022-09-28T17:13:23.718Z,81.22
2022-09-28T17:18:26.077Z,81.32
2022-09-28T17:23:28.282Z,81.24
2022-09-28T17:28:33.209Z,81.41
2022-09-28T17:33:35.420Z,81.30
2022-09-28T17:38:37.675Z,81.33
2022-09-28T17:43:41.552Z,81.44
2022-09-28T17:48:47.632Z,81.30
2022-09-28T17:53:50.053Z,81.41
2022-09-28T17:58:52.854Z,81.18
2022-09-28T18:03:56.947Z,81.41
2022-09-28T18:08:59.359Z,81.24
2022-09-28T18:14:01.920Z,81.37
2022-09-28T18:19:04.192Z,81.37
2022-09-28T18:24:07.702Z,81.31
2022-09-28T18:29:10.869Z,81.37
2022-09-28T18:34:13.873Z,81.34
2022-09-28T18:39:16.133Z,81.46
2022-09-28T18:44:18.370Z,81.43
2022-09-28T18:49:21.513Z,81.48
2022-09-28T18:54:23.912Z,81.38
2022-09-28T18:59:26.173Z,81.50
2022-09-28T19:04:33.744Z,81.61
2022-09-28T19:09:35.964Z,81.96
2022-09-28T19:14:38.222Z,81.58
2022-09-28T19:19:42.850Z,81.73
2022-09-28T19:24:45.039Z,82.00
2022-09-28T19:29:47.293Z,81.95
2022-09-28T19:34:49.454Z,81.79
2022-09-28T19:39:51.671Z,81.94
2022-09-28T19:44:53.845Z,82.16
2022-09-28T19:49:56.104Z,82.14
2022-09-28T19:54:58.394Z,82.29
2022-09-28T20:00:03.576Z,82.43
2022-09-28T20:05:09.272Z,82.19
2022-09-28T20:10:12.186Z,82.35
2022-09-28T20:15:17.794Z,82.36
2022-09-28T20:20:20.226Z,81.97
2022-09-28T20:25:22.515Z,82.11
2022-09-28T20:30:24.647Z,82.15
2022-09-28T20:35:32.959Z,82.19
2022-09-28T20:40:40.408Z,82.35
2022-09-28T20:45:43.339Z,82.33
2022-09-28T20:50:45.907Z,82.21
2022-09-28T20:55:48.069Z,82.25
2022-09-28T21:00:53.284Z,82.48
2022-09-28T21:05:55.880Z,82.09
2022-09-28T21:10:58.535Z,82.39
2022-09-28T21:16:04.676Z,82.36
2022-09-28T21:21:08.676Z,82.39
2022-09-28T21:26:24.973Z,82.47
2022-09-28T21:31:30.121Z,82.27
2022-09-28T21:36:32.653Z,82.21
2022-09-28T21:41:34.927Z,82.29
2022-09-28T21:46:38.751Z,82.20
2022-09-28T21:51:41.172Z,82.46
2022-09-28T21:56:43.476Z,82.31
2022-09-28T22:01:45.716Z,82.23
2022-09-28T22:06:48.020Z,82.19
2022-09-28T22:11:51.356Z,82.19
2022-09-28T22:16:53.593Z,82.32
2022-09-28T22:21:55.730Z,82.27
2022-09-28T22:26:58.055Z,82.16
2022-09-28T22:32:02.599Z,82.29
2022-09-28T22:37:04.866Z,82.08
2022-09-28T22:42:08.404Z,81.97
2022-09-28T22:47:10.701Z,82.30
2022-09-28T22:52:12.905Z,82.08
2022-09-28T22:57:15.102Z,82.18
2022-09-28T23:02:17.286Z,82.19
2022-09-28T23:07:20.123Z,81.83
2022-09-28T23:12:22.344Z,82.21
2022-09-28T23:17:24.533Z,81.97
2022-09-28T23:22:26.675Z,81.67
2022-09-28T23:27:28.850Z,81.76
2022-09-28T23:32:32.135Z,82.01
2022-09-28T23:37:34.449Z,81.95
2022-09-28T23:42:36.630Z,82.16
2022-09-28T23:47:38.994Z,82.18
2022-09-28T23:52:41.107Z,81.76
2022-09-28T23:57:44.284Z,81.97
